Flight Track Log - Related Links

Times and Time Zones

All times are in EDT time to prevent confusion due to time zone crossing. See the N589H flight status page for this flight to view local times or setup timezone preferences in your user account.

Time Position Orientation Groundspeed Altitude Reporting Facility
EDT Latitude Longitude Course Direction KTS MPH feet Rate Location/Type
Thu 02:47:54 PM 27.1703 -80.1883 94° East 154 177 1,500  Level Miami Center
Thu 02:48:54 PM 27.1672 -80.1392 94° East 165 190 3,500 1,750 Climbing Miami Center
Thu 02:49:54 PM 27.2067 -80.1472 350° North 153 176 5,000 1,300 Climbing Miami Center
Thu 02:50:54 PM 27.2236 -80.2272 283° West 183 211 6,100 1,350 Climbing Miami Center
Thu 02:51:54 PM 27.2364 -80.3047 281° West 232 267 7,700 1,600 Climbing Miami Center
Thu 02:52:54 PM 27.2469 -80.3844 278° West 259 298 9,300 1,800 Climbing Miami Center
Thu 02:53:54 PM 27.2536 -80.4547 276° West 259 298 11,300 2,000 Climbing Miami Center
Thu 02:54:54 PM 27.2642 -80.5297 279° West 254 292 13,300 2,150 Climbing Miami Center
Thu 02:55:54 PM 27.2747 -80.6167 278° West 254 292 15,600 2,100 Climbing Miami Center
Thu 02:56:54 PM 27.2831 -80.6917 277° West 254 292 17,500 1,150 Climbing Miami Center
Thu 02:57:54 PM 27.2997 -80.7717 283° West 254 292 17,900 250 Climbing Miami Center
Thu 02:58:54 PM 27.3306 -80.8614 291° West 285 328 18,000 50 Climbing Miami Center
Thu 02:59:54 PM 27.3489 -80.9533 283° West 297 342 18,000  Level Miami Center
Thu 03:00:54 PM 27.3650 -81.0472 281° West 304 350 18,000 -50 Level Miami Center
Thu 03:01:54 PM 27.3728 -81.1411 275° West 304 350 17,900 -500 Descending Miami Center
Thu 03:02:54 PM 27.3761 -81.2347 272° West 304 350 17,000 -950 Descending Miami Center
Thu 03:03:54 PM 27.4089 -81.3250 292° West 309 356 16,000 -1,050 Descending Miami Center
Thu 03:04:54 PM 27.4544 -81.4086 302° West 314 361 14,900 -1,050 Descending Miami Center
Thu 03:05:54 PM 27.4892 -81.4967 294° West 314 361 13,900 -1,000 Descending Miami Center
Thu 03:06:54 PM 27.4944 -81.5903 274° West 308 354 12,900 -950 Descending Miami Center
Thu 03:07:54 PM 27.5019 -81.6797 275° West 296 341 12,000 -900 Descending Miami Center
Thu 03:08:54 PM 27.5094 -81.7642 276° West 291 335 11,100 -950 Descending Miami Center
Thu 03:09:54 PM 27.5064 -81.8553 268° West 291 335 10,100 -550 Descending Miami Center
Thu 03:10:54 PM 27.4867 -81.9433 256° West 291 335 10,000 -300 Descending Miami Center
Thu 03:11:54 PM 27.4708 -82.0339 259° West 291 335 9,500 -950 Descending Miami Center
Thu 03:12:54 PM 27.4556 -82.1106 257° West 291 335 8,100 -750 Descending Miami Center
Thu 03:13:54 PM 27.4967 -82.1872 301° West 279 321 8,000 -50 Descending Miami Center
Thu 03:14:54 PM 27.5528 -82.2458 317° Northwest 268 308 8,000 -250 Level Miami Center
Thu 03:15:54 PM 27.5728 -82.3289 285° West 268 308 7,500 -783 Descending Miami Center
Thu 03:16:26 PM 27.5833 -82.3833 282° West 282 325 6,800 -1,043 Descending Tampa TRACON
Thu 03:17:26 PM 27.5833 -82.4667 270° West 286 329 5,900 -950 Descending Tampa TRACON
Thu 03:18:26 PM 27.6000 -82.5500 283° West 265 305 4,900 -939 Descending Tampa TRACON
Thu 03:19:21 PM 27.6167 -82.6167 286° West 227 261 4,100 -614 Descending Tampa TRACON
Thu 03:19:54 PM 27.6119 -82.6564 262° West 255 293 4,000 -65 Descending Miami Center
Thu 03:20:54 PM 27.6217 -82.7247 279° West 241 277 4,000  Level Miami Center
Thu 03:22:27 PM 27.6333 -82.8500 276° West 225 259 4,000  Level Tampa TRACON
Thu 03:23:27 PM 27.6667 -82.8833 318° Northwest 185 213 4,000  Level Tampa TRACON
Thu 03:24:27 PM 27.7167 -82.9167 329° Northwest 190 219 4,000  Level Tampa TRACON
Thu 03:25:27 PM 27.7667 -82.9333 344° North 197 227 4,000  Level Tampa TRACON
Thu 03:26:27 PM 27.8167 -82.9667 329° Northwest 199 229 4,000  Level Tampa TRACON
Thu 03:27:27 PM 27.8667 -83.0000 329° Northwest 204 235 4,000 -143 Level Tampa TRACON
Thu 03:28:33 PM 27.9167 -83.0000 360° North 196 226 3,700 -550 Descending Tampa TRACON
Thu 03:29:27 PM 27.9333 -82.9500 69° East 157 181 2,900 -850 Descending Tampa TRACON
Thu 03:30:33 PM 27.9333 -82.9000 90° East 162 186 2,000 -429 Descending Tampa TRACON
Thu 03:31:33 PM 27.9167 -82.8500 111° Southeast 157 181 2,000 -50 Level Tampa TRACON
Thu 03:32:34 PM 27.9000 -82.8000 111° Southeast 158 182 1,900 -397 Descending Tampa TRACON
Thu 03:33:34 PM 27.9000 -82.7667 90° East 149 171 1,200 -700 Descending Tampa TRACON
Thu 03:34:34 PM 27.9167 -82.7167 69° East 130 150 500 -700 Descending Tampa TRACON

Login

Don't have an account? Register now (free) for customized features, flight alerts, and more!